createdAt,value
2022-10-20T04:33:06.903Z,17.77
2022-10-20T04:38:09.615Z,18.17
2022-10-20T04:43:12.351Z,15.17
2022-10-20T04:48:15.083Z,17.67
2022-10-20T04:53:17.778Z,19.67
2022-10-20T04:58:20.482Z,18.20
2022-10-20T05:03:23.178Z,18.50
2022-10-20T05:08:25.832Z,14.13
2022-10-20T05:13:28.616Z,11.27
2022-10-20T05:18:31.904Z,12.07
2022-10-20T05:23:34.683Z,14.83
2022-10-20T05:28:37.366Z,12.77
2022-10-20T05:33:43.556Z,17.50
2022-10-20T05:38:46.909Z,18.33
2022-10-20T05:43:58.791Z,19.40
2022-10-20T05:49:02.999Z,17.90
2022-10-20T05:54:05.699Z,18.60
2022-10-20T05:59:08.542Z,23.23
2022-10-20T06:04:11.241Z,18.50
2022-10-20T06:09:13.940Z,19.50
2022-10-20T06:14:17.439Z,21.57
2022-10-20T06:19:20.542Z,21.70
2022-10-20T06:24:23.284Z,21.13
2022-10-20T06:29:26.073Z,24.43
2022-10-20T06:34:28.745Z,26.27
2022-10-20T06:39:31.491Z,31.30
2022-10-20T06:44:39.320Z,36.63
2022-10-20T06:49:42.024Z,34.50
2022-10-20T06:54:44.739Z,31.50
2022-10-20T06:59:48.841Z,34.23
2022-10-20T07:04:54.159Z,27.50
2022-10-20T07:09:57.089Z,29.23
2022-10-20T07:14:59.859Z,30.17
2022-10-20T07:20:02.790Z,29.70
2022-10-20T07:25:06.986Z,32.27
2022-10-20T07:30:09.960Z,30.43
2022-10-20T07:35:12.649Z,29.30
2022-10-20T07:40:15.536Z,31.50
2022-10-20T07:45:26.046Z,25.27
2022-10-20T07:50:28.928Z,28.23
2022-10-20T07:55:38.640Z,26.80
2022-10-20T08:00:42.089Z,26.33
2022-10-20T08:05:44.797Z,23.37
2022-10-20T08:10:47.587Z,19.50
2022-10-20T08:15:52.916Z,22.67
2022-10-20T08:21:05.596Z,19.57
2022-10-20T08:26:11.366Z,20.80
2022-10-20T08:31:14.517Z,16.33
2022-10-20T08:36:17.467Z,10.57
2022-10-20T08:41:27.014Z,8.33
2022-10-20T08:46:36.807Z,7.63
2022-10-20T08:51:39.676Z,9.13
2022-10-20T08:56:42.899Z,11.60
2022-10-20T09:01:45.733Z,27.83
2022-10-20T09:06:57.158Z,16.17
2022-10-20T09:12:08.225Z,14.37
2022-10-20T09:17:17.797Z,16.13
2022-10-20T09:22:22.405Z,6.13
2022-10-20T09:27:34.070Z,12.93
2022-10-20T09:32:52.384Z,11.13
2022-10-20T09:38:15.521Z,10.50
2022-10-20T09:43:19.019Z,9.93
2022-10-20T09:48:31.782Z,6.40
2022-10-20T09:53:38.391Z,9.00
2022-10-20T09:58:42.690Z,9.33
2022-10-20T10:03:53.329Z,6.97
2022-10-20T10:08:57.782Z,7.83
2022-10-20T10:14:01.075Z,11.70
2022-10-20T10:19:04.916Z,9.73
2022-10-20T10:24:10.461Z,7.43
2022-10-20T10:29:17.769Z,8.80
2022-10-20T10:34:20.402Z,8.37
2022-10-20T10:39:23.114Z,6.23
2022-10-20T10:44:52.372Z,4.40
2022-10-20T10:49:54.984Z,3.50
2022-10-20T10:55:04.239Z,5.83
2022-10-20T11:00:21.678Z,2.67
2022-10-20T11:05:33.226Z,6.20
2022-10-20T11:10:44.824Z,3.47
2022-10-20T11:16:12.159Z,3.37
2022-10-20T11:21:46.222Z,4.43
2022-10-20T11:26:54.446Z,2.50
2022-10-20T11:32:25.679Z,3.67
2022-10-20T11:37:30.910Z,3.47
2022-10-20T11:42:56.314Z,4.03
2022-10-20T11:48:14.359Z,2.63
2022-10-20T11:53:27.559Z,2.33
2022-10-20T11:58:54.591Z,2.83
2022-10-20T12:04:38.680Z,3.60
2022-10-20T12:09:52.764Z,4.37
2022-10-20T12:15:33.617Z,3.23
2022-10-20T12:20:39.468Z,1.97
2022-10-20T12:25:42.422Z,1.83
2022-10-20T12:30:46.396Z,2.87
2022-10-20T12:36:13.975Z,2.00
2022-10-20T12:41:33.849Z,1.93
2022-10-20T12:46:40.844Z,2.27
2022-10-20T12:51:50.800Z,2.67
2022-10-20T12:56:59.401Z,3.10
2022-10-20T13:02:11.251Z,3.43
2022-10-20T13:07:13.975Z,2.07
2022-10-20T13:12:29.011Z,1.97
2022-10-20T13:18:01.648Z,2.17
2022-10-20T13:23:04.601Z,3.20
2022-10-20T13:28:13.528Z,3.53
2022-10-20T13:33:38.463Z,3.27
2022-10-20T13:39:11.445Z,4.40
2022-10-20T13:44:38.795Z,2.57
2022-10-20T13:50:06.202Z,7.80
2022-10-20T13:55:16.167Z,2.50
2022-10-20T14:00:26.044Z,7.73
2022-10-20T14:05:31.556Z,7.00
2022-10-20T14:10:56.210Z,3.97
2022-10-20T14:16:00.332Z,7.57
2022-10-20T14:21:13.459Z,9.13
2022-10-20T14:26:21.899Z,24.07
2022-10-20T14:31:25.354Z,21.50
2022-10-20T14:36:29.333Z,7.27
2022-10-20T14:41:34.001Z,5.93
2022-10-20T14:46:39.876Z,3.07
2022-10-20T14:51:47.681Z,3.53
2022-10-20T14:56:51.749Z,3.33
2022-10-20T15:02:01.577Z,4.37
2022-10-20T15:07:19.391Z,3.90
2022-10-20T15:12:33.057Z,6.23
2022-10-20T15:17:37.892Z,5.30
2022-10-20T15:22:43.307Z,5.50
2022-10-20T15:27:46.269Z,5.57
2022-10-20T15:32:49.346Z,4.50
2022-10-20T15:37:56.249Z,5.43
2022-10-20T15:42:59.184Z,7.20
2022-10-20T15:48:03.271Z,8.10
2022-10-20T15:53:06.231Z,8.27
2022-10-20T15:58:14.384Z,11.23
2022-10-20T16:03:18.672Z,10.93
2022-10-20T16:08:21.475Z,14.07
2022-10-20T16:13:24.174Z,8.53
2022-10-20T16:18:26.909Z,9.93
2022-10-20T16:23:29.716Z,10.37
2022-10-20T16:28:32.444Z,7.30
2022-10-20T16:33:35.921Z,8.60
2022-10-20T16:38:40.275Z,13.07
2022-10-20T16:43:45.447Z,12.63
2022-10-20T16:48:49.237Z,15.33
2022-10-20T16:53:53.602Z,16.27
2022-10-20T16:58:56.962Z,17.07
2022-10-20T17:03:59.650Z,16.70
2022-10-20T17:09:02.474Z,21.87
2022-10-20T17:14:05.257Z,18.53
2022-10-20T17:19:08.142Z,14.57
2022-10-20T17:24:12.551Z,15.07
2022-10-20T17:29:15.300Z,16.27
2022-10-20T17:34:18.519Z,13.80
2022-10-20T17:39:22.204Z,17.10
2022-10-20T17:44:25.004Z,13.43
2022-10-20T17:49:28.096Z,12.57
2022-10-20T17:54:30.818Z,17.60
2022-10-20T17:59:38.338Z,26.43
2022-10-20T18:04:51.128Z,29.80
2022-10-20T18:09:54.124Z,20.97
2022-10-20T18:14:56.827Z,26.00
2022-10-20T18:20:00.109Z,35.93
2022-10-20T18:25:02.902Z,53.37
2022-10-20T18:30:07.655Z,53.73
2022-10-20T18:35:10.705Z,48.53
2022-10-20T18:40:13.454Z,47.27
2022-10-20T18:45:16.459Z,38.30
2022-10-20T18:50:19.386Z,77.60
2022-10-20T18:55:27.037Z,105.87
2022-10-20T19:00:32.633Z,54.37
2022-10-20T19:05:37.843Z,40.57
2022-10-20T19:10:44.135Z,40.70
2022-10-20T19:15:46.909Z,37.17
2022-10-20T19:20:57.344Z,38.43
2022-10-20T19:26:19.062Z,42.73
2022-10-20T19:31:32.758Z,42.70
2022-10-20T19:36:35.768Z,43.13
2022-10-20T19:41:38.523Z,34.77
2022-10-20T19:46:41.848Z,37.87
2022-10-20T19:51:44.541Z,37.63
2022-10-20T19:56:49.958Z,42.87
2022-10-20T20:01:52.879Z,41.70
2022-10-20T20:07:01.901Z,38.67
2022-10-20T20:12:05.320Z,36.40
2022-10-20T20:17:10.910Z,31.97
2022-10-20T20:22:17.005Z,34.37
2022-10-20T20:27:19.694Z,28.00
2022-10-20T20:32:22.444Z,29.47
2022-10-20T20:37:25.325Z,29.63
2022-10-20T20:42:28.057Z,28.57
2022-10-20T20:47:34.167Z,31.97
2022-10-20T20:52:36.863Z,28.97
2022-10-20T20:57:39.847Z,32.87
2022-10-20T21:02:46.581Z,32.90
2022-10-20T21:07:49.350Z,28.97
2022-10-20T21:12:52.049Z,32.67
2022-10-20T21:17:54.932Z,36.60
2022-10-20T21:22:57.637Z,37.90
2022-10-20T21:28:00.379Z,37.87
2022-10-20T21:33:03.075Z,46.23
2022-10-20T21:38:05.762Z,38.33
2022-10-20T21:43:11.222Z,34.07
2022-10-20T21:48:13.903Z,35.67
2022-10-20T21:53:17.115Z,36.97
2022-10-20T21:58:19.774Z,29.63
2022-10-20T22:03:22.764Z,27.73
2022-10-20T22:08:25.495Z,30.10
2022-10-20T22:13:29.312Z,25.23
2022-10-20T22:18:32.120Z,29.97
2022-10-20T22:23:35.201Z,33.47
2022-10-20T22:28:38.278Z,27.07
2022-10-20T22:33:41.079Z,22.57
2022-10-20T22:38:43.769Z,25.63
2022-10-20T22:43:46.543Z,21.40
2022-10-20T22:48:49.354Z,24.07
2022-10-20T22:53:52.064Z,24.93
2022-10-20T22:58:55.398Z,19.10
2022-10-20T23:03:58.162Z,21.07
2022-10-20T23:09:00.987Z,27.07
2022-10-20T23:14:06.492Z,21.23
2022-10-20T23:19:09.227Z,27.67
2022-10-20T23:24:11.894Z,30.90
2022-10-20T23:29:14.589Z,24.57
